Time;durP1;ratioP1;P1;durP2;ratioP2;P2;SDS_P1;SDS_P2;PMS_P1;PMS_P2;Temp;Humidity;BMP_temperature;BMP_pressure;BME280_temperature;BME280_humidity;BME280_pressure;Samples;Min_cycle;Max_cycle;Signal;HPM_P1;HPM_P2
2023/02/09 00:01:27;;;;;;;50.20;21.60;;;;;;;-128.00;-1.00;-1.00;102863;1253;1010583;-45
2023/02/09 00:03:56;;;;;;;50.60;22.70;;;;;;;-128.00;-1.00;-1.00;103581;1254;1011055;-45
2023/02/09 00:06:25;;;;;;;48.90;19.60;;;;;;;-128.00;-1.00;-1.00;103209;1255;1012945;-46
2023/02/09 00:08:53;;;;;;;48.10;20.10;;;;;;;-128.00;-1.00;-1.00;103511;1256;1012701;-44
2023/02/09 00:14:12;;;;;;;56.90;22.20;;;;;;;-128.00;-1.00;-1.00;102989;1256;1010742;-45
2023/02/09 00:16:44;;;;;;;46.80;20.30;;;;;;;-128.00;-1.00;-1.00;103336;1253;1011611;-42
2023/02/09 00:19:13;;;;;;;54.00;21.40;;;;;;;-128.00;-1.00;-1.00;103033;1254;1013985;-46
2023/02/09 00:21:41;;;;;;;48.20;19.60;;;;;;;-128.00;-1.00;-1.00;102955;1254;1012640;-44
2023/02/09 00:24:09;;;;;;;48.50;21.00;;;;;;;-128.00;-1.00;-1.00;103023;1256;1002887;-45
2023/02/09 00:26:37;;;;;;;55.10;19.90;;;;;;;-128.00;-1.00;-1.00;103513;1254;1009941;-45
2023/02/09 00:29:06;;;;;;;52.90;20.30;;;;;;;-128.00;-1.00;-1.00;103167;1254;1011296;-44
2023/02/09 00:31:34;;;;;;;47.60;20.10;;;;;;;-128.00;-1.00;-1.00;103058;1256;1013323;-44
2023/02/09 00:34:04;;;;;;;49.50;18.30;;;;;;;-128.00;-1.00;-1.00;103109;1256;1012418;-45
2023/02/09 00:36:33;;;;;;;46.10;17.70;;;;;;;-128.00;-1.00;-1.00;103415;1255;1012510;-42
2023/02/09 00:39:01;;;;;;;43.90;17.30;;;;;;;-128.00;-1.00;-1.00;102931;1256;1002685;-44
2023/02/09 00:44:16;;;;;;;41.40;17.70;;;;;;;-128.00;-1.00;-1.00;103106;1253;1012415;-43
2023/02/09 00:46:44;;;;;;;43.80;18.00;;;;;;;-128.00;-1.00;-1.00;102928;1253;1012636;-43
2023/02/09 00:50:15;;;;;;;57.80;21.20;;;;;;;;;;102641;1295;602114;-42
2023/02/09 00:52:43;;;;;;;46.20;19.90;;;;;;;;;;104914;1267;58965;-44
2023/02/09 00:55:11;;;;;;;52.40;20.70;;;;;;;;;;104816;1264;59074;-44
2023/02/09 00:57:40;;;;;;;46.50;17.90;;;;;;;;;;105081;1265;60519;-44
2023/02/09 01:00:08;;;;;;;49.00;18.50;;;;;;;;;;105046;1268;59260;-45
2023/02/09 01:02:37;;;;;;;48.10;20.70;;;;;;;;;;105014;1264;59757;-45
2023/02/09 01:05:05;;;;;;;43.90;17.30;;;;;;;;;;106066;1256;129036;-44
2023/02/09 01:07:33;;;;;;;40.40;16.40;;;;;;;;;;105804;1251;58947;-45
2023/02/09 01:10:01;;;;;;;42.20;15.90;;;;;;;;;;105898;1251;60492;-44
2023/02/09 01:12:30;;;;;;;43.80;16.70;;;;;;;;;;105879;1254;58927;-44
2023/02/09 01:15:00;;;;;;;35.10;16.10;;;;;;;;;;105816;1251;60688;-44
2023/02/09 01:17:32;;;;;;;40.20;15.40;;;;;;;;;;105791;1251;59733;-44
2023/02/09 01:19:59;;;;;;;39.20;15.60;;;;;;;;;;105780;1253;59740;-45
2023/02/09 01:22:28;;;;;;;34.60;14.70;;;;;;;;;;105907;1251;60273;-44
2023/02/09 01:24:56;;;;;;;41.80;15.90;;;;;;;;;;105672;1251;60193;-44
2023/02/09 01:27:24;;;;;;;35.70;13.80;;;;;;;;;;105448;1251;60773;-44
2023/02/09 01:29:52;;;;;;;35.40;14.80;;;;;;;;;;105974;1256;59733;-45
2023/02/09 01:32:20;;;;;;;30.30;14.20;;;;;;;;;;105691;1256;59525;-43
2023/02/09 01:34:57;;;;;;;41.00;16.30;;;;;;;;;;106151;1254;61153;-44
2023/02/09 01:37:25;;;;;;;34.10;13.90;;;;;;;;;;105767;1256;59628;-46
2023/02/09 01:39:53;;;;;;;36.40;13.10;;;;;;;;;;105826;1254;60750;-43
2023/02/09 01:42:21;;;;;;;35.20;14.40;;;;;;;;;;105689;1257;59632;-44
2023/02/09 01:45:00;;;;;;;36.20;13.80;;;;;;;;;;105719;1254;59650;-45
2023/02/09 01:47:31;;;;;;;36.70;14.10;;;;;;;;;;105744;1251;61075;-45
2023/02/09 01:50:02;;;;;;;35.10;14.00;;;;;;;;;;105719;1256;59717;-45
2023/02/09 01:52:30;;;;;;;31.80;14.00;;;;;;;;;;105710;1254;61918;-45
2023/02/09 01:55:01;;;;;;;37.10;14.00;;;;;;;;;;105639;1256;59701;-45
2023/02/09 01:57:31;;;;;;;38.60;15.30;;;;;;;;;;105650;1251;59733;-45
2023/02/09 02:00:00;;;;;;;35.70;13.60;;;;;;;;;;105967;1255;61038;-46
2023/02/09 02:02:29;;;;;;;30.10;12.40;;;;;;;;;;105575;1256;59611;-45
2023/02/09 02:04:57;;;;;;;30.80;11.60;;;;;;;;;;105575;1257;60519;-45
2023/02/09 02:07:29;;;;;;;29.50;12.10;;;;;;;;;;105551;1254;59605;-45
2023/02/09 02:09:58;;;;;;;16.20;6.60;;;;;;;;;;105918;1251;59630;-44
2023/02/09 02:12:26;;;;;;;27.10;10.40;;;;;;;;;;105861;1257;61488;-45
2023/02/09 02:14:54;;;;;;;32.20;11.10;;;;;;;;;;105694;1256;59926;-46
2023/02/09 02:17:28;;;;;;;31.60;11.60;;;;;;;;;;105717;1256;60850;-43
2023/02/09 02:20:15;;;;;;;35.30;13.90;;;;;;;;;;105655;1256;59651;-42
2023/02/09 02:22:52;;;;;;;28.40;11.20;;;;;;;;;;105492;1256;59648;-44
2023/02/09 02:25:20;;;;;;;30.30;11.00;;;;;;;;;;105515;1251;61044;-41
2023/02/09 02:28:07;;;;;;;29.20;12.70;;;;;;;;;;106398;1256;59621;-43
2023/02/09 02:31:05;;;;;;;28.60;12.30;;;;;;;;;;105678;1251;60857;-43
2023/02/09 02:33:40;;;;;;;27.90;11.60;;;;;;;;;;105432;1251;59723;-45
2023/02/09 02:36:11;;;;;;;38.00;15.20;;;;;;;;;;105956;1251;59647;-42
2023/02/09 02:38:49;;;;;;;34.80;12.90;;;;;;;;;;105674;1255;61290;-42
2023/02/09 02:41:23;;;;;;;37.50;15.00;;;;;;;;;;105704;1256;59580;-43
2023/02/09 02:43:56;;;;;;;36.60;15.30;;;;;;;;;;105689;1251;61711;-43
2023/02/09 02:46:32;;;;;;;34.20;13.20;;;;;;;;;;106031;1256;59665;-43
2023/02/09 02:49:02;;;;;;;36.10;13.70;;;;;;;;;;105808;1256;59641;-44
2023/02/09 02:51:40;;;;;;;43.80;15.00;;;;;;;;;;105789;1255;60360;-44
2023/02/09 02:54:10;;;;;;;41.50;15.40;;;;;;;;;;106097;1256;60383;-44
2023/02/09 02:56:42;;;;;;;35.40;14.90;;;;;;;;;;105770;1257;60941;-45
2023/02/09 02:59:11;;;;;;;34.30;13.30;;;;;;;;;;106046;1254;59631;-42
2023/02/09 03:01:45;;;;;;;38.10;14.10;;;;;;;;;;105706;1251;59681;-44
2023/02/09 03:04:13;;;;;;;39.20;15.10;;;;;;;;;;106004;1256;61646;-43
2023/02/09 03:06:41;;;;;;;41.10;14.80;;;;;;;;;;105911;1255;59557;-44
2023/02/09 03:09:08;;;;;;;39.30;15.80;;;;;;;;;;106038;1251;60436;-45
2023/02/09 03:11:50;;;;;;;40.40;14.70;;;;;;;;;;105754;1257;59531;-45
2023/02/09 03:14:25;;;;;;;38.60;15.40;;;;;;;;;;105781;1251;59596;-45
2023/02/09 03:17:12;;;;;;;38.60;13.30;;;;;;;;;;105792;1257;61120;-43
2023/02/09 03:19:51;;;;;;;43.40;14.60;;;;;;;;;;105594;1255;59731;-43
2023/02/09 03:22:19;;;;;;;38.40;14.90;;;;;;;;;;106293;1256;60911;-45
2023/02/09 03:24:50;;;;;;;36.20;13.60;;;;;;;;;;105666;1256;59717;-45
2023/02/09 03:27:26;;;;;;;40.90;14.90;;;;;;;;;;105648;1251;59605;-45
2023/02/09 03:29:55;;;;;;;39.00;13.90;;;;;;;;;;106227;1251;61413;-44
2023/02/09 03:32:22;;;;;;;37.40;14.10;;;;;;;;;;105812;1256;59598;-45
2023/02/09 03:34:51;;;;;;;37.30;13.50;;;;;;;;;;105682;1257;60746;-43
2023/02/09 03:37:19;;;;;;;40.30;14.90;;;;;;;;;;105646;1256;59620;-43
2023/02/09 03:39:47;;;;;;;33.70;14.10;;;;;;;;;;105649;1254;59672;-42
2023/02/09 03:42:15;;;;;;;37.40;13.90;;;;;;;;;;106006;1254;61418;-44
2023/02/09 03:44:43;;;;;;;39.90;15.00;;;;;;;;;;105763;1252;59577;-42
2023/02/09 03:47:11;;;;;;;37.00;15.80;;;;;;;;;;105837;1256;60760;-45
2023/02/09 03:49:39;;;;;;;40.80;14.60;;;;;;;;;;105694;1257;59599;-45
2023/02/09 03:52:08;;;;;;;43.10;17.20;;;;;;;;;;106012;1256;59604;-44
2023/02/09 03:54:36;;;;;;;37.90;14.10;;;;;;;;;;105777;1256;61291;-43
2023/02/09 03:57:04;;;;;;;36.90;15.60;;;;;;;;;;106000;1255;59624;-45
2023/02/09 03:59:36;;;;;;;37.30;14.10;;;;;;;;;;105911;1255;60782;-44
2023/02/09 04:02:05;;;;;;;35.60;13.90;;;;;;;;;;105853;1251;59704;-43
2023/02/09 04:04:32;;;;;;;35.10;15.00;;;;;;;;;;105851;1251;59539;-44
2023/02/09 04:07:00;;;;;;;37.30;16.00;;;;;;;;;;105710;1256;61432;-46
2023/02/09 04:09:30;;;;;;;37.80;15.10;;;;;;;;;;105713;1255;60047;-43
2023/02/09 04:11:58;;;;;;;44.50;16.10;;;;;;;;;;106911;1254;60628;-45
2023/02/09 04:14:27;;;;;;;44.00;15.80;;;;;;;;;;105762;1256;59542;-46
2023/02/09 04:16:55;;;;;;;46.90;17.40;;;;;;;;;;105642;1255;59586;-44
2023/02/09 04:19:23;;;;;;;42.50;16.20;;;;;;;;;;105676;1257;61098;-44
2023/02/09 04:21:51;;;;;;;41.10;16.30;;;;;;;;;;105801;1256;59749;-45
2023/02/09 04:24:26;;;;;;;40.80;15.90;;;;;;;;;;105754;1256;60776;-46
2023/02/09 04:26:54;;;;;;;37.30;14.10;;;;;;;;;;105819;1251;59624;-45
2023/02/09 04:29:22;;;;;;;36.30;14.80;;;;;;;;;;105704;1251;61339;-45
2023/02/09 04:31:50;;;;;;;32.20;12.70;;;;;;;;;;105646;1257;61094;-43
2023/02/09 04:34:20;;;;;;;35.20;12.70;;;;;;;;;;106076;1256;59993;-45
2023/02/09 04:36:47;;;;;;;27.00;11.30;;;;;;;;;;105974;1251;59911;-44
2023/02/09 04:39:16;;;;;;;30.90;11.90;;;;;;;;;;106203;1256;59631;-44
2023/02/09 04:41:43;;;;;;;31.90;11.90;;;;;;;;;;105811;1253;59510;-44
2023/02/09 04:44:11;;;;;;;33.00;11.10;;;;;;;;;;105809;1251;61701;-44
2023/02/09 04:46:39;;;;;;;28.10;11.20;;;;;;;;;;106181;1255;59618;-44
2023/02/09 04:49:07;;;;;;;29.50;11.30;;;;;;;;;;105794;1256;59763;-44
2023/02/09 04:51:35;;;;;;;31.80;12.10;;;;;;;;;;105713;1257;59644;-45
2023/02/09 04:54:03;;;;;;;26.40;10.60;;;;;;;;;;105764;1256;59621;-45
2023/02/09 04:56:34;;;;;;;22.40;9.10;;;;;;;;;;105742;1251;61569;-44
2023/02/09 05:01:51;;;;;;;23.20;9.90;;;;;;;;;;105751;1257;62632;-42
2023/02/09 05:04:19;;;;;;;25.20;9.60;;;;;;;;;;105748;1256;60776;-44
2023/02/09 05:06:47;;;;;;;22.40;10.10;;;;;;;;;;105841;1251;60418;-45
2023/02/09 05:09:15;;;;;;;24.50;10.70;;;;;;;;;;105731;1256;62131;-42
2023/02/09 05:11:47;;;;;;;29.10;10.40;;;;;;;;;;105809;1257;63067;-44
2023/02/09 05:14:15;;;;;;;23.30;9.80;;;;;;;;;;105972;1252;60774;-43
2023/02/09 05:16:43;;;;;;;25.70;10.10;;;;;;;;;;105727;1256;60443;-44
2023/02/09 05:19:12;;;;;;;28.20;12.30;;;;;;;;;;105678;1256;60402;-45
2023/02/09 05:21:39;;;;;;;25.20;10.10;;;;;;;;;;106126;1256;61592;-44
2023/02/09 05:24:07;;;;;;;33.40;12.40;;;;;;;;;;105744;1257;60995;-44
2023/02/09 05:26:36;;;;;;;30.30;12.00;;;;;;;;;;105951;1256;61702;-45
2023/02/09 05:29:04;;;;;;;29.50;10.80;;;;;;;;;;106151;1256;60308;-45
2023/02/09 05:31:32;;;;;;;31.50;10.60;;;;;;;;;;105822;1257;60383;-44
2023/02/09 05:34:00;;;;;;;22.10;9.60;;;;;;;;;;106179;1256;62022;-44
2023/02/09 05:36:28;;;;;;;25.90;8.90;;;;;;;;;;107034;1255;60340;-45
2023/02/09 05:38:56;;;;;;;28.70;10.30;;;;;;;;;;106690;1257;60446;-44
2023/02/09 05:44:11;;;;;;;22.00;9.50;;;;;;;;;;105855;1257;60452;-45
2023/02/09 05:46:39;;;;;;;24.70;9.20;;;;;;;;;;105796;1256;62010;-44
2023/02/09 05:49:08;;;;;;;25.30;9.20;;;;;;;;;;105671;1256;59041;-45
2023/02/09 05:51:36;;;;;;;21.50;9.40;;;;;;;;;;105684;1256;61691;-44
2023/02/09 05:54:04;;;;;;;20.80;8.60;;;;;;;;;;105454;1256;59580;-44
2023/02/09 05:56:32;;;;;;;21.60;9.80;;;;;;;;;;105544;1257;60351;-45
2023/02/09 05:59:00;;;;;;;27.80;9.70;;;;;;;;;;105225;1256;62108;-45
2023/02/09 06:01:32;;;;;;;25.70;10.10;;;;;;;;;;105337;1255;60421;-44
2023/02/09 06:04:00;;;;;;;26.50;10.80;;;;;;;;;;105747;1257;60747;-44
2023/02/09 06:06:28;;;;;;;27.20;10.50;;;;;;;;;;105587;1260;60556;-45
2023/02/09 06:08:56;;;;;;;31.20;11.20;;;;;;;;;;106207;1257;60418;-45
2023/02/09 06:11:23;;;;;;;25.40;10.40;;;;;;;;;;105674;1252;61882;-45
2023/02/09 06:13:51;;;;;;;24.20;8.50;;;;;;;;;;107429;1256;58361;-45
2023/02/09 06:16:19;;;;;;;23.70;10.70;;;;;;;;;;106778;1255;60591;-46
2023/02/09 06:18:48;;;;;;;26.80;10.60;;;;;;;;;;106586;1257;59009;-45
2023/02/09 06:21:16;;;;;;;20.80;9.20;;;;;;;;;;106249;1251;60514;-46
2023/02/09 06:23:44;;;;;;;26.90;9.80;;;;;;;;;;105736;1260;62330;-46
2023/02/09 06:26:12;;;;;;;29.40;9.90;;;;;;;;;;105668;1256;60436;-45
2023/02/09 06:28:41;;;;;;;26.10;11.50;;;;;;;;;;105570;1255;60532;-45
2023/02/09 06:31:09;;;;;;;28.20;11.10;;;;;;;;;;105700;1260;60526;-46
2023/02/09 06:33:37;;;;;;;31.30;13.30;;;;;;;;;;105733;1251;60623;-45
2023/02/09 06:36:06;;;;;;;30.00;13.10;;;;;;;;;;105951;1253;62137;-46
2023/02/09 06:38:35;;;;;;;27.40;12.80;;;;;;;;;;105686;1251;60549;-48
2023/02/09 06:41:03;;;;;;;32.50;14.50;;;;;;;;;;105862;1251;60758;-48
2023/02/09 06:43:32;;;;;;;34.80;13.70;;;;;;;;;;105727;1251;60616;-46
2023/02/09 06:46:04;;;;;;;29.30;12.70;;;;;;;;;;106028;1256;60538;-47
2023/02/09 06:48:32;;;;;;;34.10;13.20;;;;;;;;;;105768;1256;62123;-45
2023/02/09 06:51:00;;;;;;;23.80;11.60;;;;;;;;;;105433;1251;60536;-46
2023/02/09 06:53:28;;;;;;;35.70;14.20;;;;;;;;;;105285;1254;60899;-46
2023/02/09 06:56:00;;;;;;;40.90;16.50;;;;;;;;;;106320;1254;60530;-47
2023/02/09 06:58:28;;;;;;;39.10;16.40;;;;;;;;;;105905;1256;60328;-47
2023/02/09 07:01:02;;;;;;;40.10;17.20;;;;;;;;;;105725;1256;62344;-46
2023/02/09 07:03:31;;;;;;;48.00;19.80;;;;;;;;;;105944;1264;60427;-47
2023/02/09 07:06:06;;;;;;;44.30;17.60;;;;;;;;;;105747;1251;60549;-46
2023/02/09 07:08:35;;;;;;;41.90;16.60;;;;;;;;;;105690;1256;60366;-47
2023/02/09 07:11:04;;;;;;;39.70;15.90;;;;;;;;;;105463;1251;62138;-49
2023/02/09 07:13:34;;;;;;;40.20;17.40;;;;;;;;;;105449;1257;62178;-46
2023/02/09 07:16:03;;;;;;;37.70;16.60;;;;;;;;;;105841;1254;60440;-46
2023/02/09 07:18:33;;;;;;;36.50;16.30;;;;;;;;;;105352;1257;61833;-45
2023/02/09 07:21:03;;;;;;;30.10;15.00;;;;;;;;;;105748;1251;60274;-47
2023/02/09 07:23:31;;;;;;;35.70;15.20;;;;;;;;;;105387;1258;60533;-46
2023/02/09 07:26:02;;;;;;;34.90;16.00;;;;;;;;;;105394;1256;62310;-48
2023/02/09 07:28:32;;;;;;;30.90;14.10;;;;;;;;;;105083;1257;60667;-48
2023/02/09 07:31:03;;;;;;;29.70;13.70;;;;;;;;;;105084;1251;60530;-46
2023/02/09 07:33:32;;;;;;;36.90;14.90;;;;;;;;;;105577;1254;60444;-45
2023/02/09 07:36:03;;;;;;;32.20;14.50;;;;;;;;;;105406;1251;60441;-48
2023/02/09 07:38:32;;;;;;;29.50;13.90;;;;;;;;;;105671;1256;61991;-46
2023/02/09 07:41:01;;;;;;;31.60;14.20;;;;;;;;;;106172;1256;60468;-45
2023/02/09 07:43:29;;;;;;;30.90;12.90;;;;;;;;;;105216;1251;60785;-47
2023/02/09 07:46:00;;;;;;;34.30;15.70;;;;;;;;;;105206;1258;60504;-46
2023/02/09 07:48:29;;;;;;;28.60;14.30;;;;;;;;;;105886;1256;60417;-45
2023/02/09 07:50:57;;;;;;;32.70;15.20;;;;;;;;;;105432;1252;62761;-46
2023/02/09 07:53:25;;;;;;;33.00;15.00;;;;;;;;;;105772;1251;60565;-43
2023/02/09 07:55:53;;;;;;;37.80;16.00;;;;;;;;;;105842;1256;60952;-46
2023/02/09 07:58:21;;;;;;;33.00;15.20;;;;;;;;;;105719;1256;61532;-45
2023/02/09 08:00:49;;;;;;;38.60;18.10;;;;;;;;;;106142;1251;60428;-46
2023/02/09 08:03:18;;;;;;;40.10;20.90;;;;;;;;;;105888;1257;63711;-45
2023/02/09 08:05:54;;;;;;;50.00;23.20;;;;;;;;;;105831;1256;60513;-46
2023/02/09 08:08:22;;;;;;;43.00;20.90;;;;;;;;;;105775;1251;60732;-46
2023/02/09 08:10:50;;;;;;;43.60;23.00;;;;;;;;;;106723;1252;60414;-45
2023/02/09 08:13:18;;;;;;;40.30;21.40;;;;;;;;;;106061;1256;60431;-45
2023/02/09 08:15:47;;;;;;;40.20;20.50;;;;;;;;;;105980;1251;62128;-44
2023/02/09 08:18:17;;;;;;;38.50;19.30;;;;;;;;;;105806;1256;60510;-43
2023/02/09 08:20:45;;;;;;;36.90;18.30;;;;;;;;;;105868;1251;60799;-44
2023/02/09 08:23:18;;;;;;;41.20;18.70;;;;;;;;;;105848;1257;60442;-46
2023/02/09 08:25:50;;;;;;;35.10;18.20;;;;;;;;;;106118;1251;59003;-45
2023/02/09 08:28:18;;;;;;;43.90;19.50;;;;;;;;;;105694;1256;62095;-47
2023/02/09 08:30:47;;;;;;;35.20;17.70;;;;;;;;;;105962;1255;60440;-46
2023/02/09 08:33:18;;;;;;;41.20;19.40;;;;;;;;;;108319;1251;60768;-44
2023/02/09 08:35:51;;;;;;;35.30;18.30;;;;;;;;;;105714;1257;60400;-45
2023/02/09 08:38:18;;;;;;;35.00;17.90;;;;;;;;;;105996;1251;60427;-46
2023/02/09 08:40:46;;;;;;;35.90;18.50;;;;;;;;;;105469;1251;62113;-46
2023/02/09 08:43:14;;;;;;;40.20;18.70;;;;;;;;;;105328;1255;60428;-45
2023/02/09 08:45:42;;;;;;;41.10;19.40;;;;;;;;;;105273;1255;60370;-45
2023/02/09 08:48:11;;;;;;;44.10;21.50;;;;;;;;;;105429;1256;60325;-45
2023/02/09 08:50:39;;;;;;;35.60;18.20;;;;;;;;;;105350;1251;60405;-46
2023/02/09 08:53:08;;;;;;;42.10;19.80;;;;;;;;;;105763;1257;61995;-46
2023/02/09 08:55:36;;;;;;;37.80;20.40;;;;;;;;;;105719;1251;60586;-44
2023/02/09 08:58:06;;;;;;;44.20;20.90;;;;;;;;;;105763;1251;60860;-47
2023/02/09 09:00:34;;;;;;;44.50;22.70;;;;;;;;;;106827;1251;60524;-45
2023/02/09 09:03:05;;;;;;;42.80;20.30;;;;;;;;;;107152;1251;60408;-46
2023/02/09 09:05:33;;;;;;;46.80;22.90;;;;;;;;;;105305;1251;64145;-45
2023/02/09 09:08:02;;;;;;;45.60;22.50;;;;;;;;;;105465;1251;60623;-45
2023/02/09 09:10:31;;;;;;;44.90;21.60;;;;;;;;;;105439;1255;63380;-46
2023/02/09 09:12:59;;;;;;;48.70;24.60;;;;;;;;;;106112;1256;60444;-46
2023/02/09 09:15:27;;;;;;;45.80;24.10;;;;;;;;;;105701;1251;60581;-46
2023/02/09 09:17:55;;;;;;;49.00;23.60;;;;;;;;;;106956;1257;61835;-46
2023/02/09 09:20:23;;;;;;;51.50;24.60;;;;;;;;;;105428;1257;60236;-46
2023/02/09 09:22:52;;;;;;;54.20;24.60;;;;;;;;;;105856;1255;60607;-46
2023/02/09 09:25:19;;;;;;;48.60;25.00;;;;;;;;;;105948;1256;60543;-47
2023/02/09 09:27:49;;;;;;;57.00;26.20;;;;;;;;;;105377;1254;60437;-47
2023/02/09 09:30:17;;;;;;;59.30;27.70;;;;;;;;;;106441;1251;60633;-46
2023/02/09 09:32:45;;;;;;;53.20;27.90;;;;;;;;;;105715;1257;60529;-45
2023/02/09 09:35:13;;;;;;;48.10;24.00;;;;;;;;;;105408;1251;60323;-45
2023/02/09 09:37:42;;;;;;;44.70;23.40;;;;;;;;;;105501;1257;60543;-46
2023/02/09 09:40:17;;;;;;;45.90;23.80;;;;;;;;;;105704;1251;60507;-46
2023/02/09 09:42:47;;;;;;;48.60;25.30;;;;;;;;;;105551;1257;61699;-45
2023/02/09 09:45:16;;;;;;;48.00;24.90;;;;;;;;;;105441;1251;61946;-48
2023/02/09 09:47:44;;;;;;;37.40;19.50;;;;;;;;;;105202;1251;61273;-47
2023/02/09 09:50:19;;;;;;;47.20;24.00;;;;;;;;;;105639;1256;60549;-47
2023/02/09 09:52:56;;;;;;;50.70;27.80;;;;;;;;;;105672;1251;60363;-46
2023/02/09 09:55:24;;;;;;;52.90;26.00;;;;;;;;;;105788;1251;61880;-46
2023/02/09 09:57:53;;;;;;;51.10;27.90;;;;;;;;;;105302;1251;60422;-45
2023/02/09 10:00:22;;;;;;;47.60;24.00;;;;;;;;;;105365;1251;60800;-46
2023/02/09 10:02:51;;;;;;;40.80;22.40;;;;;;;;;;105638;1251;60533;-45
2023/02/09 10:05:19;;;;;;;40.50;23.80;;;;;;;;;;105681;1254;60405;-47
2023/02/09 10:07:48;;;;;;;40.50;22.40;;;;;;;;;;105851;1257;62086;-45
2023/02/09 10:10:18;;;;;;;41.00;21.70;;;;;;;;;;105694;1256;60429;-47
2023/02/09 10:12:47;;;;;;;39.80;19.90;;;;;;;;;;105804;1257;60447;-47
2023/02/09 10:15:23;;;;;;;36.60;20.20;;;;;;;;;;105807;1256;60447;-47
2023/02/09 10:17:51;;;;;;;31.80;17.80;;;;;;;;;;105895;1251;60504;-46
2023/02/09 10:20:37;;;;;;;32.40;17.60;;;;;;;;;;105868;1251;62256;-45
2023/02/09 10:23:05;;;;;;;32.30;16.80;;;;;;;;;;105773;1256;61201;-47
2023/02/09 10:25:38;;;;;;;27.90;15.10;;;;;;;;;;105741;1256;60838;-46
2023/02/09 10:28:16;;;;;;;26.90;15.80;;;;;;;;;;105792;1251;60630;-47
2023/02/09 10:30:44;;;;;;;28.30;16.60;;;;;;;;;;106138;1256;60524;-48
2023/02/09 10:33:13;;;;;;;33.10;17.60;;;;;;;;;;105913;1256;62131;-47
2023/02/09 10:36:04;;;;;;;29.20;16.20;;;;;;;;;;105568;1257;60424;-46
2023/02/09 10:38:32;;;;;;;27.10;15.60;;;;;;;;;;107555;1254;60781;-46
2023/02/09 10:41:01;;;;;;;28.80;16.10;;;;;;;;;;105619;1256;60549;-48
2023/02/09 10:43:30;;;;;;;30.60;16.10;;;;;;;;;;105555;1251;60437;-46
2023/02/09 10:45:58;;;;;;;35.60;18.00;;;;;;;;;;105329;1251;61165;-47
2023/02/09 10:48:27;;;;;;;35.10;19.80;;;;;;;;;;105808;1256;60399;-45
2023/02/09 10:50:56;;;;;;;33.90;19.10;;;;;;;;;;105245;1251;60888;-47
2023/02/09 10:53:31;;;;;;;35.30;19.10;;;;;;;;;;105655;1257;60431;-47
2023/02/09 10:56:03;;;;;;;36.80;19.80;;;;;;;;;;105568;1251;60463;-47
2023/02/09 10:58:32;;;;;;;35.30;20.50;;;;;;;;;;105573;1251;62169;-46
2023/02/09 11:01:05;;;;;;;38.30;21.10;;;;;;;;;;105695;1251;60530;-47
2023/02/09 11:03:33;;;;;;;32.80;18.90;;;;;;;;;;105791;1257;60504;-47
2023/02/09 11:06:03;;;;;;;36.90;20.10;;;;;;;;;;106565;1251;60524;-48
2023/02/09 11:08:37;;;;;;;33.40;18.30;;;;;;;;;;105463;1256;60293;-44
2023/02/09 11:11:18;;;;;;;35.10;18.80;;;;;;;;;;105481;1251;61944;-46
2023/02/09 11:13:45;;;;;;;33.50;19.20;;;;;;;;;;105782;1251;60354;-47
2023/02/09 11:16:18;;;;;;;35.20;19.90;;;;;;;;;;105473;1251;60616;-47
2023/02/09 11:18:48;;;;;;;31.80;17.60;;;;;;;;;;105243;1251;62270;-47
2023/02/09 11:21:19;;;;;;;25.50;15.90;;;;;;;;;;105381;1251;60398;-47
2023/02/09 11:24:07;;;;;;;31.40;17.60;;;;;;;;;;105541;1253;63556;-45
2023/02/09 11:26:47;;;;;;;35.00;19.00;;;;;;;;;;105406;1255;60639;-47
2023/02/09 11:29:24;;;;;;;27.80;16.20;;;;;;;;;;105511;1251;60657;-47
2023/02/09 11:31:53;;;;;;;34.70;18.20;;;;;;;;;;108992;1253;58858;-46
2023/02/09 11:34:27;;;;;;;28.90;15.60;;;;;;;;;;105965;1251;60432;-47
2023/02/09 11:37:15;;;;;;;31.30;17.20;;;;;;;;;;106114;1251;61343;-47
2023/02/09 11:39:45;;;;;;;33.50;18.10;;;;;;;;;;105409;1256;60431;-46
2023/02/09 11:45:03;;;;;;;31.30;19.30;;;;;;;;;;105455;1254;61170;-47
2023/02/09 11:47:37;;;;;;;26.20;16.20;;;;;;;;;;105791;1251;60476;-46
2023/02/09 11:50:07;;;;;;;30.90;19.00;;;;;;;;;;105495;1251;62323;-48
2023/02/09 11:52:43;;;;;;;32.30;18.30;;;;;;;;;;105858;1256;60379;-47
2023/02/09 11:55:25;;;;;;;31.80;18.30;;;;;;;;;;105727;1256;60758;-47
2023/02/09 11:57:54;;;;;;;28.30;16.10;;;;;;;;;;105911;1251;60584;-46
2023/02/09 12:00:23;;;;;;;26.30;15.90;;;;;;;;;;105815;1256;60408;-47
2023/02/09 12:03:02;;;;;;;26.60;15.60;;;;;;;;;;105958;1256;61890;-47
2023/02/09 12:05:31;;;;;;;25.60;15.80;;;;;;;;;;105780;1256;60580;-45
2023/02/09 12:08:04;;;;;;;23.40;14.60;;;;;;;;;;105574;1251;60836;-47
2023/02/09 12:10:36;;;;;;;22.30;12.40;;;;;;;;;;105701;1255;60532;-48
2023/02/09 12:13:23;;;;;;;31.40;16.60;;;;;;;;;;106545;1254;60428;-48
2023/02/09 12:15:55;;;;;;;23.60;14.20;;;;;;;;;;105686;1251;61920;-46
2023/02/09 12:18:24;;;;;;;25.30;12.90;;;;;;;;;;105853;1251;60431;-48
2023/02/09 12:20:52;;;;;;;23.70;13.60;;;;;;;;;;105782;1254;60801;-46
2023/02/09 12:23:23;;;;;;;24.10;13.20;;;;;;;;;;105153;1257;60498;-46
2023/02/09 12:26:00;;;;;;;24.20;12.20;;;;;;;;;;105094;1256;60286;-46
2023/02/09 12:28:31;;;;;;;19.70;11.90;;;;;;;;;;105567;1251;61216;-46
2023/02/09 12:30:59;;;;;;;25.40;12.80;;;;;;;;;;106121;1251;60472;-46
2023/02/09 12:33:28;;;;;;;18.50;10.90;;;;;;;;;;105674;1255;60450;-47
2023/02/09 12:36:08;;;;;;;27.40;13.00;;;;;;;;;;106323;1254;60533;-45
2023/02/09 12:38:45;;;;;;;27.90;14.40;;;;;;;;;;106152;1257;60346;-48
2023/02/09 12:41:29;;;;;;;23.00;12.30;;;;;;;;;;105480;1251;62042;-45
2023/02/09 12:44:09;;;;;;;22.80;12.80;;;;;;;;;;107102;1256;58353;-44
2023/02/09 12:46:43;;;;;;;21.10;13.00;;;;;;;;;;105937;1256;60793;-44
2023/02/09 12:49:11;;;;;;;25.30;12.90;;;;;;;;;;105762;1253;60469;-45
2023/02/09 12:51:42;;;;;;;19.90;11.80;;;;;;;;;;105720;1251;60482;-44
2023/02/09 12:54:28;;;;;;;23.00;12.60;;;;;;;;;;106794;1251;62149;-44
2023/02/09 12:57:15;;;;;;;20.30;11.10;;;;;;;;;;105774;1256;60366;-45
2023/02/09 12:59:49;;;;;;;15.80;10.10;;;;;;;;;;106060;1256;60772;-44
2023/02/09 13:02:36;;;;;;;20.80;10.20;;;;;;;;;;105674;1256;60520;-44
2023/02/09 13:05:07;;;;;;;17.50;9.60;;;;;;;;;;105717;1254;118019;-44
2023/02/09 13:08:34;;;;;;;15.90;9.60;;;;;;;-0.87;100.00;102402.52;102397;1293;600445;-46
2023/02/09 13:11:27;;;;;;;18.10;9.90;;;;;;;-0.90;100.00;102388.27;104573;1267;61306;-47
2023/02/09 13:14:06;;;;;;;15.30;9.60;;;;;;;-0.93;100.00;102374.04;104865;1267;59455;-44
2023/02/09 13:16:43;;;;;;;17.00;9.10;;;;;;;-0.94;100.00;102363.61;104851;1267;70181;-44
2023/02/09 13:19:30;;;;;;;18.30;9.40;;;;;;;-0.96;100.00;102355.09;104571;1269;66954;-44
2023/02/09 13:22:27;;;;;;;20.00;9.60;;;;;;;-0.98;100.00;102346.88;104382;1264;137848;-43
2023/02/09 13:24:57;;;;;;;19.00;9.50;;;;;;;-0.98;100.00;102341.77;104694;1267;59231;-52
2023/02/09 13:27:26;;;;;;;15.40;7.80;;;;;;;-0.99;100.00;102332.91;104689;1266;60115;-48
2023/02/09 13:29:55;;;;;;;12.80;7.50;;;;;;;-1.00;100.00;102328.83;104638;1264;73265;-45
2023/02/09 13:32:48;;;;;;;15.40;8.30;;;;;;;-1.01;100.00;102318.02;104678;1264;67974;-44
2023/02/09 13:35:25;;;;;;;15.00;8.70;;;;;;;-1.03;100.00;102312.31;104505;1264;73316;-44
2023/02/09 13:37:54;;;;;;;13.20;7.60;;;;;;;-1.04;100.00;102304.69;104568;1266;60294;-48
2023/02/09 13:40:26;;;;;;;15.00;8.70;;;;;;;-1.05;100.00;102298.66;104804;1264;59688;-44
2023/02/09 13:43:09;;;;;;;14.90;9.00;;;;;;;-1.07;100.00;102294.02;104963;1264;73797;-44
2023/02/09 13:45:51;;;;;;;20.30;9.50;;;;;;;-1.08;100.00;102292.89;104969;1264;69029;-44
2023/02/09 13:48:24;;;;;;;12.50;7.70;;;;;;;-1.10;100.00;102291.59;105152;1264;73882;-45
2023/02/09 13:50:53;;;;;;;18.30;8.90;;;;;;;-1.14;100.00;102285.66;105168;1267;61474;-44
2023/02/09 13:53:23;;;;;;;13.40;8.00;;;;;;;-1.17;100.00;102279.67;104793;1263;60561;-43
2023/02/09 13:55:52;;;;;;;16.80;8.90;;;;;;;-1.18;100.00;102277.51;104922;1267;71518;-44
2023/02/09 13:58:33;;;;;;;16.30;8.90;;;;;;;-1.20;100.00;102274.14;105067;1269;67328;-45
2023/02/09 14:01:12;;;;;;;19.30;9.70;;;;;;;-1.22;100.00;102275.82;105085;1265;73637;-44
2023/02/09 14:03:44;;;;;;;16.10;8.10;;;;;;;-1.24;100.00;102271.86;105065;1269;59744;-42
2023/02/09 14:06:37;;;;;;;14.70;7.90;;;;;;;-1.26;100.00;102272.83;104940;1268;61246;-44
2023/02/09 14:09:26;;;;;;;14.80;8.10;;;;;;;-1.29;100.00;102269.90;104863;1267;73020;-45
2023/02/09 14:11:56;;;;;;;13.10;7.80;;;;;;;-1.32;100.00;102266.92;104860;1266;67524;-43
2023/02/09 14:16:05;;;;;;;17.80;8.90;;;;;;;-1.34;100.00;102262.08;105078;1267;71668;-46